createdAt,value
2023-01-26T00:00:38.297Z,480.00
2023-01-26T00:01:38.237Z,479.00
2023-01-26T00:02:38.228Z,479.00
2023-01-26T00:03:38.180Z,477.00
2023-01-26T00:04:38.073Z,478.00
2023-01-26T00:05:38.013Z,479.00
2023-01-26T00:06:37.932Z,480.00
2023-01-26T00:07:37.910Z,478.00
2023-01-26T00:08:37.873Z,480.00
2023-01-26T00:09:37.775Z,479.00
2023-01-26T00:10:37.737Z,479.00
2023-01-26T00:11:37.693Z,479.00
2023-01-26T00:12:37.624Z,477.00
2023-01-26T00:13:37.590Z,477.00
2023-01-26T00:14:37.513Z,477.00
2023-01-26T00:15:37.462Z,478.00
2023-01-26T00:16:37.416Z,478.00
2023-01-26T00:17:37.359Z,476.00
2023-01-26T00:18:37.311Z,476.00
2023-01-26T00:19:37.276Z,477.00
2023-01-26T00:20:37.206Z,477.00
2023-01-26T00:21:37.135Z,473.00
2023-01-26T00:22:37.085Z,475.00
2023-01-26T00:23:37.053Z,472.00
2023-01-26T00:24:36.969Z,474.00
2023-01-26T00:25:36.938Z,475.00
2023-01-26T00:26:36.880Z,473.00
2023-01-26T00:27:36.822Z,472.00
2023-01-26T00:28:36.799Z,473.00
2023-01-26T00:29:36.706Z,475.00
2023-01-26T00:30:36.740Z,477.00
2023-01-26T00:31:36.676Z,477.00
2023-01-26T00:32:36.607Z,479.00
2023-01-26T00:33:36.524Z,476.00
2023-01-26T00:34:36.458Z,475.00
2023-01-26T00:35:36.392Z,473.00
2023-01-26T00:36:36.385Z,471.00
2023-01-26T00:37:36.312Z,471.00
2023-01-26T00:38:36.301Z,470.00
2023-01-26T00:39:36.190Z,469.00
2023-01-26T00:40:36.150Z,466.00
2023-01-26T00:41:36.107Z,470.00
2023-01-26T00:42:36.066Z,471.00
2023-01-26T00:43:36.004Z,471.00
2023-01-26T00:44:35.953Z,470.00
2023-01-26T00:45:35.905Z,468.00
2023-01-26T00:46:35.901Z,469.00
2023-01-26T00:47:35.790Z,470.00
2023-01-26T00:48:35.787Z,471.00
2023-01-26T00:49:35.694Z,473.00
2023-01-26T00:50:35.658Z,471.00
2023-01-26T00:51:35.592Z,470.00
2023-01-26T00:52:35.544Z,468.00
2023-01-26T00:53:35.503Z,468.00
2023-01-26T00:54:35.450Z,466.00
2023-01-26T00:55:35.369Z,463.00
2023-01-26T00:56:35.340Z,463.00
2023-01-26T00:57:35.273Z,462.00
2023-01-26T00:58:35.236Z,460.00
2023-01-26T00:59:35.180Z,460.00
2023-01-26T01:00:35.162Z,460.00
2023-01-26T01:01:35.145Z,458.00
2023-01-26T01:02:35.027Z,458.00
2023-01-26T01:03:35.032Z,459.00
2023-01-26T01:39:33.118Z,455.00
2023-01-26T01:55:32.275Z,458.00
2023-01-26T01:56:32.253Z,458.00
2023-01-26T01:57:32.199Z,459.00
2023-01-26T01:58:32.124Z,458.00
2023-01-26T01:59:32.090Z,454.00
2023-01-26T02:00:32.090Z,452.00
2023-01-26T02:01:31.978Z,453.00
2023-01-26T02:02:31.930Z,453.00
2023-01-26T02:03:31.863Z,453.00
2023-01-26T02:04:31.820Z,452.00
2023-01-26T02:05:31.788Z,452.00
2023-01-26T02:06:31.724Z,451.00
2023-01-26T02:07:31.664Z,448.00
2023-01-26T02:08:31.619Z,448.00
2023-01-26T02:09:31.561Z,450.00
2023-01-26T02:10:31.575Z,449.00
2023-01-26T02:11:31.457Z,450.00
2023-01-26T02:12:31.414Z,452.00
2023-01-26T02:13:31.360Z,454.00
2023-01-26T02:14:31.308Z,456.00
2023-01-26T02:15:31.268Z,457.00
2023-01-26T02:16:31.265Z,458.00
2023-01-26T02:17:31.194Z,459.00
2023-01-26T02:18:31.149Z,458.00
2023-01-26T02:19:31.085Z,457.00
2023-01-26T02:20:31.046Z,457.00
2023-01-26T02:21:31.001Z,457.00
2023-01-26T02:22:30.939Z,454.00
2023-01-26T02:23:30.902Z,453.00
2023-01-26T02:24:30.825Z,453.00
2023-01-26T02:25:30.816Z,449.00
2023-01-26T02:26:30.733Z,447.00
2023-01-26T02:27:30.680Z,448.00
2023-01-26T02:28:30.638Z,445.00
2023-01-26T02:29:30.567Z,443.00
2023-01-26T02:30:30.560Z,446.00
2023-01-26T02:31:30.549Z,447.00
2023-01-26T02:32:30.423Z,442.00
2023-01-26T02:33:30.390Z,443.00
2023-01-26T02:34:30.345Z,445.00
2023-01-26T02:35:30.365Z,445.00
2023-01-26T02:36:30.229Z,446.00
2023-01-26T02:37:30.181Z,449.00
2023-01-26T02:38:30.135Z,449.00
2023-01-26T02:39:30.082Z,448.00
2023-01-26T02:40:30.042Z,449.00
2023-01-26T02:41:29.969Z,447.00
2023-01-26T02:42:29.922Z,447.00
2023-01-26T02:43:29.878Z,440.00
2023-01-26T02:44:29.806Z,442.00
2023-01-26T02:45:29.758Z,447.00
2023-01-26T02:46:29.755Z,447.00
2023-01-26T02:47:29.673Z,448.00
2023-01-26T02:48:29.610Z,445.00
2023-01-26T02:49:29.573Z,443.00
2023-01-26T02:50:29.553Z,446.00
2023-01-26T02:51:29.493Z,445.00
2023-01-26T03:15:28.439Z,437.00
2023-01-26T03:16:28.410Z,433.00
2023-01-26T03:17:28.360Z,432.00
2023-01-26T03:18:28.336Z,434.00
2023-01-26T03:19:28.300Z,436.00
2023-01-26T03:20:28.245Z,438.00
2023-01-26T03:21:28.241Z,439.00
2023-01-26T03:22:28.229Z,437.00
2023-01-26T03:23:28.128Z,440.00
2023-01-26T03:24:28.143Z,440.00
2023-01-26T03:25:28.035Z,442.00
2023-01-26T03:26:28.011Z,441.00
2023-01-26T03:27:27.979Z,443.00
2023-01-26T03:28:27.938Z,441.00
2023-01-26T03:29:27.872Z,443.00
2023-01-26T03:30:27.851Z,445.00
2023-01-26T03:31:27.827Z,443.00
2023-01-26T03:32:27.758Z,443.00
2023-01-26T03:33:27.712Z,442.00
2023-01-26T03:34:27.670Z,439.00
2023-01-26T03:35:27.635Z,440.00
2023-01-26T03:36:27.595Z,437.00
2023-01-26T03:37:27.529Z,437.00
2023-01-26T03:38:27.473Z,436.00
2023-01-26T03:39:27.448Z,439.00
2023-01-26T03:40:27.427Z,437.00
2023-01-26T03:41:27.384Z,436.00
2023-01-26T03:42:27.325Z,435.00
2023-01-26T03:43:27.294Z,437.00
2023-01-26T03:44:27.222Z,434.00
2023-01-26T03:45:27.186Z,433.00
2023-01-26T03:46:27.210Z,432.00
2023-01-26T03:47:27.121Z,431.00
2023-01-26T03:48:27.076Z,433.00
2023-01-26T03:49:27.014Z,432.00
2023-01-26T03:50:26.999Z,431.00
2023-01-26T03:51:26.982Z,432.00
2023-01-26T03:52:26.893Z,433.00
2023-01-26T03:53:26.861Z,433.00
2023-01-26T03:54:26.815Z,436.00
2023-01-26T03:55:26.760Z,434.00
2023-01-26T03:56:26.794Z,434.00
2023-01-26T03:57:26.693Z,434.00
2023-01-26T03:58:26.654Z,435.00
2023-01-26T03:59:26.606Z,438.00
2023-01-26T04:00:26.599Z,437.00
2023-01-26T04:01:26.571Z,440.00
2023-01-26T04:02:26.476Z,443.00
2023-01-26T04:03:26.437Z,443.00
2023-01-26T04:04:26.402Z,442.00
2023-01-26T04:05:26.320Z,440.00
2023-01-26T04:06:26.447Z,441.00
2023-01-26T04:07:26.240Z,443.00
2023-01-26T04:08:26.215Z,444.00
2023-01-26T04:09:26.169Z,441.00
2023-01-26T04:10:26.114Z,441.00
2023-01-26T04:11:26.076Z,441.00
2023-01-26T04:12:26.037Z,438.00
2023-01-26T04:13:25.971Z,441.00
2023-01-26T04:14:25.934Z,444.00
2023-01-26T04:15:25.923Z,441.00
2023-01-26T04:16:25.902Z,437.00
2023-01-26T04:17:25.854Z,434.00
2023-01-26T04:18:25.770Z,432.00
2023-01-26T04:19:25.752Z,437.00
2023-01-26T04:20:25.713Z,435.00
2023-01-26T04:21:25.633Z,436.00
2023-01-26T04:22:25.625Z,437.00
2023-01-26T04:23:25.580Z,437.00
2023-01-26T04:24:25.608Z,434.00
2023-01-26T04:25:25.478Z,436.00
2023-01-26T04:26:25.446Z,438.00
2023-01-26T04:27:25.392Z,439.00
2023-01-26T04:28:25.345Z,437.00
2023-01-26T04:29:25.285Z,435.00
2023-01-26T04:30:25.275Z,441.00
2023-01-26T04:31:25.249Z,437.00
2023-01-26T04:32:25.172Z,436.00
2023-01-26T04:33:25.131Z,439.00
2023-01-26T04:34:25.098Z,440.00
2023-01-26T04:35:25.052Z,440.00
2023-01-26T04:36:25.007Z,438.00
2023-01-26T04:37:24.970Z,438.00
2023-01-26T04:38:24.916Z,439.00
2023-01-26T04:39:24.873Z,439.00
2023-01-26T04:40:24.878Z,440.00
2023-01-26T04:41:24.821Z,440.00
2023-01-26T04:42:24.772Z,441.00
2023-01-26T04:43:24.731Z,440.00
2023-01-26T04:44:24.679Z,438.00
2023-01-26T04:45:24.643Z,437.00
2023-01-26T04:46:24.598Z,442.00
2023-01-26T04:47:24.568Z,440.00
2023-01-26T04:48:24.521Z,437.00
2023-01-26T04:49:24.485Z,435.00
2023-01-26T04:50:24.448Z,437.00
2023-01-26T04:51:24.403Z,437.00
2023-01-26T04:52:24.369Z,432.00
2023-01-26T04:53:24.411Z,436.00
2023-01-26T04:54:24.312Z,438.00
2023-01-26T04:55:24.258Z,441.00
2023-01-26T04:56:24.226Z,441.00
2023-01-26T04:57:24.212Z,439.00
2023-01-26T04:58:24.168Z,440.00
2023-01-26T04:59:24.132Z,439.00
2023-01-26T05:00:24.088Z,436.00
2023-01-26T05:01:24.086Z,437.00
2023-01-26T05:02:24.006Z,437.00
2023-01-26T05:03:23.964Z,439.00
2023-01-26T05:04:23.963Z,437.00
2023-01-26T05:05:23.890Z,437.00
2023-01-26T05:06:23.874Z,438.00
2023-01-26T05:07:23.806Z,436.00
2023-01-26T05:08:23.774Z,436.00
2023-01-26T05:09:23.735Z,434.00
2023-01-26T05:10:23.683Z,434.00
2023-01-26T05:11:23.643Z,435.00
2023-01-26T05:12:23.601Z,439.00
2023-01-26T05:13:23.588Z,438.00
2023-01-26T05:14:23.523Z,439.00
2023-01-26T05:15:23.509Z,439.00
2023-01-26T05:16:23.518Z,440.00
2023-01-26T05:17:23.402Z,436.00
2023-01-26T05:18:23.391Z,436.00
2023-01-26T05:19:23.323Z,433.00
2023-01-26T05:20:23.281Z,431.00
2023-01-26T05:21:23.252Z,431.00
2023-01-26T05:22:23.253Z,431.00
2023-01-26T05:23:23.186Z,429.00
2023-01-26T05:24:23.132Z,429.00
2023-01-26T05:25:23.082Z,429.00
2023-01-26T05:26:23.053Z,429.00
2023-01-26T05:27:23.033Z,430.00
2023-01-26T05:28:22.973Z,433.00
2023-01-26T05:29:22.915Z,435.00
2023-01-26T05:30:22.885Z,434.00
2023-01-26T05:31:22.894Z,435.00
2023-01-26T05:32:22.794Z,434.00
2023-01-26T05:33:22.799Z,433.00
2023-01-26T05:34:22.714Z,432.00
2023-01-26T05:35:22.687Z,434.00
2023-01-26T05:36:22.636Z,433.00
2023-01-26T05:37:22.632Z,429.00
2023-01-26T05:38:22.604Z,430.00
2023-01-26T05:39:22.547Z,430.00
2023-01-26T05:40:22.511Z,428.00
2023-01-26T05:41:22.468Z,429.00
2023-01-26T05:42:22.425Z,430.00
2023-01-26T05:43:22.393Z,433.00
2023-01-26T05:44:22.344Z,433.00
2023-01-26T05:45:22.333Z,436.00
2023-01-26T05:46:22.272Z,437.00
2023-01-26T05:47:22.239Z,439.00
2023-01-26T05:48:22.238Z,437.00
2023-01-26T05:49:22.186Z,435.00
2023-01-26T05:50:22.120Z,435.00
2023-01-26T05:51:22.099Z,434.00
2023-01-26T05:52:22.051Z,433.00
2023-01-26T05:53:22.044Z,435.00
2023-01-26T05:54:22.020Z,437.00
2023-01-26T05:55:21.935Z,441.00
2023-01-26T05:56:21.935Z,439.00
2023-01-26T05:57:21.884Z,439.00
2023-01-26T05:58:21.846Z,438.00
2023-01-26T05:59:21.803Z,439.00
2023-01-26T06:00:21.766Z,437.00
2023-01-26T06:01:21.787Z,439.00
2023-01-26T06:02:21.823Z,438.00
2023-01-26T06:03:21.679Z,442.00
2023-01-26T06:04:21.691Z,439.00
2023-01-26T06:05:21.577Z,437.00
2023-01-26T06:06:21.581Z,438.00
2023-01-26T06:07:21.524Z,437.00
2023-01-26T06:08:21.490Z,438.00
2023-01-26T06:09:21.446Z,437.00
2023-01-26T06:10:21.411Z,432.00
2023-01-26T06:11:21.389Z,433.00
2023-01-26T06:12:21.351Z,433.00
2023-01-26T06:13:21.340Z,433.00
2023-01-26T06:14:21.263Z,432.00
2023-01-26T06:15:21.227Z,435.00
2023-01-26T06:16:21.247Z,439.00
2023-01-26T06:17:21.152Z,439.00
2023-01-26T06:18:21.140Z,441.00
2023-01-26T06:19:21.095Z,444.00
2023-01-26T06:20:21.012Z,447.00
2023-01-26T06:21:20.974Z,446.00
2023-01-26T06:22:20.929Z,444.00
2023-01-26T06:23:20.892Z,445.00
2023-01-26T06:24:20.938Z,448.00
2023-01-26T06:25:20.811Z,445.00
2023-01-26T06:26:20.769Z,446.00
2023-01-26T06:27:20.742Z,447.00
2023-01-26T06:28:20.694Z,446.00
2023-01-26T06:29:20.719Z,443.00
2023-01-26T06:30:20.657Z,445.00
2023-01-26T06:31:20.664Z,444.00
2023-01-26T06:32:20.561Z,448.00
2023-01-26T06:33:21.290Z,475.00
2023-01-26T06:34:20.535Z,503.00
2023-01-26T06:35:20.464Z,512.00
2023-01-26T06:36:20.450Z,518.00
2023-01-26T06:37:20.473Z,536.00
2023-01-26T06:38:20.398Z,540.00
2023-01-26T06:39:20.430Z,540.00
2023-01-26T06:40:20.379Z,574.00
2023-01-26T06:41:20.372Z,666.00
2023-01-26T06:42:20.359Z,547.00
2023-01-26T06:43:20.386Z,570.00
2023-01-26T06:44:20.400Z,569.00
2023-01-26T06:45:20.357Z,572.00
2023-01-26T06:46:20.405Z,577.00
2023-01-26T06:47:20.364Z,572.00
2023-01-26T06:48:20.376Z,564.00
2023-01-26T06:49:20.336Z,558.00
2023-01-26T06:50:20.345Z,569.00
2023-01-26T06:51:20.348Z,575.00
2023-01-26T06:52:20.325Z,587.00
2023-01-26T06:53:20.357Z,605.00
2023-01-26T06:54:20.304Z,642.00
2023-01-26T06:55:20.291Z,719.00
2023-01-26T06:56:20.241Z,717.00
2023-01-26T06:57:20.231Z,720.00
2023-01-26T06:58:20.188Z,723.00
2023-01-26T06:59:20.203Z,728.00
2023-01-26T07:00:20.135Z,739.00
2023-01-26T07:01:20.131Z,739.00
2023-01-26T07:02:20.077Z,746.00
2023-01-26T07:03:20.023Z,734.00
2023-01-26T07:04:20.013Z,708.00
2023-01-26T07:05:19.964Z,702.00
2023-01-26T07:06:20.044Z,686.00
2023-01-26T07:07:19.891Z,676.00
2023-01-26T07:08:19.852Z,667.00
2023-01-26T07:09:19.838Z,661.00
2023-01-26T07:10:19.775Z,654.00
2023-01-26T07:11:19.748Z,660.00
2023-01-26T07:12:19.699Z,666.00
2023-01-26T07:13:19.671Z,662.00
2023-01-26T07:14:19.684Z,657.00
2023-01-26T07:15:19.615Z,647.00
2023-01-26T07:16:19.614Z,640.00
2023-01-26T07:17:19.555Z,633.00
2023-01-26T07:18:19.525Z,629.00
2023-01-26T07:19:19.461Z,625.00
2023-01-26T07:20:19.512Z,617.00
2023-01-26T07:37:18.949Z,657.00
2023-01-26T07:40:20.886Z,653.00
2023-01-26T07:42:18.697Z,727.00
2023-01-26T07:43:18.705Z,772.00
2023-01-26T07:44:18.636Z,764.00
2023-01-26T07:45:18.742Z,765.00
2023-01-26T07:46:18.603Z,811.00
2023-01-26T07:47:18.548Z,875.00
2023-01-26T07:48:18.466Z,908.00
2023-01-26T07:49:18.492Z,936.00
2023-01-26T07:50:18.400Z,957.00
2023-01-26T07:51:18.337Z,983.00
2023-01-26T07:52:18.304Z,1007.00
2023-01-26T07:53:18.298Z,1031.00
2023-01-26T07:54:18.207Z,1044.00
2023-01-26T07:55:18.269Z,1072.00
2023-01-26T07:56:18.116Z,1097.00
2023-01-26T07:57:18.068Z,1113.00
2023-01-26T07:58:18.029Z,1133.00
2023-01-26T07:59:18.016Z,1157.00
2023-01-26T08:00:17.985Z,1176.00
2023-01-26T08:01:17.912Z,1214.00
2023-01-26T08:02:17.997Z,1227.00
2023-01-26T08:03:17.743Z,1239.00
2023-01-26T08:04:17.711Z,1250.00
2023-01-26T08:05:17.805Z,1276.00
2023-01-26T08:06:17.600Z,1294.00
2023-01-26T08:07:17.504Z,1393.00
2023-01-26T08:08:17.454Z,1383.00
2023-01-26T08:09:17.457Z,1374.00
2023-01-26T08:10:17.934Z,1434.00
2023-01-26T08:11:17.341Z,1424.00
2023-01-26T08:12:17.245Z,1431.00
2023-01-26T08:13:26.478Z,1439.00
2023-01-26T08:14:18.170Z,1446.00
2023-01-26T08:15:17.113Z,1457.00
2023-01-26T08:16:18.806Z,1473.00
2023-01-26T08:17:18.330Z,1481.00
2023-01-26T08:18:16.911Z,1493.00
2023-01-26T08:19:16.846Z,1498.00
2023-01-26T08:20:16.817Z,1508.00
2023-01-26T08:21:16.724Z,1522.00
2023-01-26T08:22:16.674Z,1593.00
2023-01-26T08:23:17.655Z,1599.00
2023-01-26T08:24:17.219Z,1609.00
2023-01-26T08:25:16.539Z,1619.00
2023-01-26T08:26:16.476Z,1627.00
2023-01-26T08:27:16.338Z,1640.00
2023-01-26T08:28:16.381Z,1657.00
2023-01-26T08:29:16.325Z,1665.00
2023-01-26T08:30:16.216Z,1676.00
2023-01-26T08:31:16.979Z,1687.00
2023-01-26T08:32:16.028Z,1693.00
2023-01-26T08:33:15.997Z,1699.00
2023-01-26T08:34:15.885Z,1712.00
2023-01-26T08:35:16.830Z,1772.00
2023-01-26T08:36:16.285Z,1827.00
2023-01-26T08:37:15.700Z,1834.00
2023-01-26T08:38:15.668Z,1841.00
2023-01-26T08:39:16.326Z,1831.00
2023-01-26T08:40:15.483Z,1821.00
2023-01-26T08:41:17.300Z,1822.00
2023-01-26T08:42:17.340Z,1553.00
2023-01-26T08:43:15.531Z,1428.00
2023-01-26T08:44:15.245Z,1512.00
2023-01-26T08:45:15.232Z,1523.00
2023-01-26T08:46:15.175Z,1518.00
2023-01-26T08:47:15.050Z,1513.00
2023-01-26T08:48:15.032Z,1520.00
2023-01-26T08:49:14.955Z,1538.00
2023-01-26T08:50:15.003Z,1555.00
2023-01-26T08:51:14.820Z,1573.00
2023-01-26T08:52:14.741Z,1587.00
2023-01-26T08:53:14.674Z,1608.00
2023-01-26T08:54:14.619Z,1622.00
2023-01-26T08:55:14.537Z,1635.00
2023-01-26T08:56:14.456Z,1646.00
2023-01-26T08:57:14.365Z,1657.00
2023-01-26T08:58:14.310Z,1682.00
2023-01-26T08:59:14.241Z,1703.00
2023-01-26T09:00:14.364Z,1715.00
2023-01-26T09:01:14.295Z,1730.00
2023-01-26T09:02:14.061Z,1751.00
2023-01-26T09:03:14.064Z,1765.00
2023-01-26T09:04:13.884Z,1776.00
2023-01-26T09:05:13.794Z,1789.00
2023-01-26T09:06:13.758Z,1788.00
2023-01-26T09:07:13.679Z,1791.00
2023-01-26T09:08:13.584Z,1803.00
2023-01-26T09:09:13.512Z,1809.00
2023-01-26T09:10:13.839Z,1810.00
2023-01-26T09:11:13.350Z,1818.00
2023-01-26T09:12:13.283Z,1826.00
2023-01-26T09:13:13.235Z,1822.00
2023-01-26T09:14:13.145Z,1836.00
2023-01-26T09:15:13.050Z,1850.00
2023-01-26T09:16:13.051Z,1865.00
2023-01-26T09:17:12.911Z,1871.00
2023-01-26T09:18:12.856Z,1880.00
2023-01-26T09:19:12.743Z,1891.00
2023-01-26T09:20:12.945Z,1895.00
2023-01-26T09:21:12.616Z,1898.00
2023-01-26T09:22:12.510Z,1905.00
2023-01-26T09:23:12.593Z,1913.00
2023-01-26T09:24:12.509Z,1927.00
2023-01-26T09:25:12.659Z,1930.00
2023-01-26T09:26:12.227Z,1927.00
2023-01-26T09:27:12.150Z,1920.00
2023-01-26T09:28:12.081Z,1909.00
2023-01-26T09:29:12.050Z,1908.00
2023-01-26T09:30:11.977Z,1904.00
2023-01-26T09:31:13.031Z,1898.00
2023-01-26T09:32:11.791Z,1788.00
2023-01-26T09:33:11.731Z,995.00
2023-01-26T09:34:11.710Z,1027.00
2023-01-26T09:35:14.240Z,986.00
2023-01-26T09:36:13.009Z,971.00
2023-01-26T09:37:11.636Z,965.00
2023-01-26T09:38:11.646Z,948.00
2023-01-26T09:39:11.573Z,923.00
2023-01-26T09:40:11.885Z,926.00
2023-01-26T09:41:11.524Z,929.00
2023-01-26T09:42:11.456Z,951.00
2023-01-26T09:43:11.387Z,997.00
2023-01-26T09:44:11.394Z,1009.00
2023-01-26T09:45:11.625Z,1023.00
2023-01-26T09:46:11.237Z,1033.00
2023-01-26T09:47:11.163Z,1047.00
2023-01-26T09:48:11.102Z,1098.00
2023-01-26T09:49:11.045Z,1096.00
2023-01-26T09:50:11.354Z,1102.00
2023-01-26T09:51:10.964Z,1114.00
2023-01-26T09:52:10.853Z,1139.00
2023-01-26T09:53:10.790Z,1157.00
2023-01-26T09:54:10.739Z,1174.00
2023-01-26T09:55:11.601Z,1008.00
2023-01-26T09:56:10.633Z,939.00
2023-01-26T09:57:10.652Z,840.00
2023-01-26T09:58:10.525Z,787.00
2023-01-26T09:59:10.491Z,749.00
2023-01-26T10:00:10.659Z,712.00
2023-01-26T10:01:10.446Z,664.00
2023-01-26T10:02:10.442Z,647.00
2023-01-26T10:03:10.413Z,639.00
2023-01-26T10:04:10.431Z,617.00
2023-01-26T10:05:10.779Z,604.00
2023-01-26T10:06:10.337Z,598.00
2023-01-26T10:07:10.335Z,588.00
2023-01-26T10:08:10.367Z,601.00
2023-01-26T10:09:10.316Z,608.00
2023-01-26T10:10:10.379Z,602.00
2023-01-26T10:11:10.315Z,613.00
2023-01-26T10:12:10.295Z,630.00
2023-01-26T10:13:10.306Z,676.00
2023-01-26T10:14:10.256Z,662.00
2023-01-26T10:15:10.503Z,652.00
2023-01-26T10:16:10.363Z,655.00
2023-01-26T10:17:10.257Z,669.00
2023-01-26T10:18:10.268Z,670.00
2023-01-26T10:19:10.259Z,696.00
2023-01-26T10:20:10.258Z,707.00
2023-01-26T10:21:10.252Z,792.00
2023-01-26T10:22:10.266Z,783.00
2023-01-26T10:23:10.297Z,733.00
2023-01-26T10:24:10.264Z,763.00
2023-01-26T10:25:10.492Z,749.00
2023-01-26T10:26:10.199Z,740.00
2023-01-26T10:27:10.180Z,753.00
2023-01-26T10:28:10.174Z,764.00
2023-01-26T10:29:10.177Z,762.00
2023-01-26T10:30:10.121Z,760.00
2023-01-26T10:31:10.141Z,754.00
2023-01-26T10:32:10.041Z,793.00
2023-01-26T10:33:10.040Z,810.00
2023-01-26T10:34:09.951Z,827.00
2023-01-26T10:35:10.241Z,908.00
2023-01-26T10:36:09.884Z,950.00
2023-01-26T10:37:09.818Z,957.00
2023-01-26T10:38:09.822Z,944.00
2023-01-26T10:39:09.731Z,953.00
2023-01-26T10:40:09.704Z,985.00
2023-01-26T10:41:09.606Z,1083.00
2023-01-26T10:42:09.579Z,1053.00
2023-01-26T10:43:09.603Z,1047.00
2023-01-26T10:45:09.595Z,1078.00
2023-01-26T10:47:09.878Z,1125.00
2023-01-26T10:52:09.859Z,1167.00
2023-01-26T10:54:09.945Z,1173.00
2023-01-26T12:15:07.587Z,749.00
2023-01-26T12:16:04.772Z,755.00
2023-01-26T12:17:17.653Z,756.00
2023-01-26T12:18:05.697Z,754.00
2023-01-26T12:19:11.218Z,757.00
2023-01-26T12:20:05.549Z,756.00
2023-01-26T12:21:04.489Z,757.00
2023-01-26T12:22:04.502Z,764.00
2023-01-26T12:23:04.407Z,872.00
2023-01-26T12:24:04.452Z,861.00
2023-01-26T12:25:20.487Z,820.00
2023-01-26T12:26:05.272Z,825.00
2023-01-26T12:27:04.201Z,897.00
2023-01-26T12:28:04.158Z,942.00
2023-01-26T12:29:04.304Z,938.00
2023-01-26T12:30:04.061Z,887.00
2023-01-26T12:31:04.008Z,860.00
2023-01-26T12:32:03.880Z,853.00
2023-01-26T12:33:03.856Z,848.00
2023-01-26T12:34:03.749Z,843.00
2023-01-26T12:35:03.686Z,842.00
2023-01-26T12:36:03.621Z,838.00
2023-01-26T12:37:03.542Z,831.00
2023-01-26T12:38:17.351Z,824.00
2023-01-26T12:39:04.394Z,818.00
2023-01-26T12:40:03.333Z,810.00
2023-01-26T12:41:03.302Z,802.00
2023-01-26T12:42:03.183Z,795.00
2023-01-26T12:43:03.139Z,786.00
2023-01-26T12:44:03.062Z,779.00
2023-01-26T12:45:02.967Z,774.00
2023-01-26T12:46:02.931Z,771.00
2023-01-26T12:47:02.834Z,765.00
2023-01-26T12:48:02.803Z,758.00
2023-01-26T12:49:03.400Z,755.00
2023-01-26T12:50:02.720Z,750.00
2023-01-26T12:51:02.523Z,744.00
2023-01-26T12:52:02.490Z,737.00
2023-01-26T12:53:02.402Z,732.00
2023-01-26T12:54:02.321Z,731.00
2023-01-26T12:55:02.262Z,726.00
2023-01-26T12:56:02.189Z,721.00
2023-01-26T12:57:02.967Z,717.00
2023-01-26T12:58:02.030Z,713.00
2023-01-26T12:59:01.981Z,709.00
2023-01-26T13:00:01.923Z,711.00
2023-01-26T13:01:01.925Z,721.00
2023-01-26T13:02:01.778Z,721.00
2023-01-26T13:03:01.659Z,718.00
2023-01-26T13:04:01.606Z,718.00
2023-01-26T13:05:01.587Z,718.00
2023-01-26T13:06:01.659Z,715.00
2023-01-26T13:07:01.382Z,716.00
2023-01-26T13:08:01.296Z,717.00
2023-01-26T13:09:01.214Z,713.00
2023-01-26T13:10:01.161Z,711.00
2023-01-26T13:11:01.069Z,709.00
2023-01-26T13:12:00.991Z,705.00
2023-01-26T13:13:00.966Z,704.00
2023-01-26T13:14:00.823Z,706.00
2023-01-26T13:15:00.844Z,707.00
2023-01-26T13:16:00.861Z,713.00
2023-01-26T13:17:00.781Z,711.00
2023-01-26T13:18:00.527Z,709.00
2023-01-26T13:19:01.434Z,705.00
2023-01-26T13:20:00.505Z,702.00
2023-01-26T13:21:00.292Z,700.00
2023-01-26T13:22:00.233Z,699.00
2023-01-26T13:23:00.185Z,699.00
2023-01-26T13:24:00.080Z,699.00
2023-01-26T13:25:00.014Z,699.00
2023-01-26T13:26:09.681Z,696.00
2023-01-26T13:27:00.824Z,696.00
2023-01-26T13:27:59.751Z,696.00
2023-01-26T13:29:01.886Z,695.00
2023-01-26T13:29:59.666Z,694.00
2023-01-26T13:30:59.661Z,692.00
2023-01-26T13:31:59.500Z,689.00
2023-01-26T13:45:00.389Z,676.00
2023-01-26T13:48:00.006Z,676.00
2023-01-26T13:48:59.913Z,672.00
2023-01-26T13:51:59.914Z,668.00
2023-01-26T14:10:56.593Z,654.00
2023-01-26T14:12:56.326Z,650.00
2023-01-26T14:13:56.281Z,649.00
2023-01-26T14:14:56.142Z,651.00
2023-01-26T14:15:56.085Z,649.00
2023-01-26T14:17:55.866Z,648.00
2023-01-26T14:20:55.597Z,650.00
2023-01-26T14:24:55.919Z,649.00
2023-01-26T14:25:55.205Z,651.00
2023-01-26T14:28:56.093Z,652.00
2023-01-26T14:29:54.949Z,652.00
2023-01-26T14:30:54.864Z,649.00
2023-01-26T14:31:54.740Z,648.00
2023-01-26T14:32:54.646Z,645.00
2023-01-26T14:33:54.578Z,643.00
2023-01-26T14:34:54.511Z,643.00
2023-01-26T14:35:54.528Z,643.00
2023-01-26T14:36:54.496Z,643.00
2023-01-26T14:37:54.314Z,642.00
2023-01-26T14:38:54.218Z,641.00
2023-01-26T14:39:54.186Z,639.00
2023-01-26T14:40:54.079Z,639.00
2023-01-26T14:41:54.012Z,641.00
2023-01-26T14:42:54.035Z,643.00
2023-01-26T14:43:57.097Z,640.00
2023-01-26T14:44:53.816Z,640.00
2023-01-26T14:45:53.721Z,639.00
2023-01-26T14:46:53.788Z,635.00
2023-01-26T14:47:53.601Z,636.00
2023-01-26T14:48:53.537Z,637.00
2023-01-26T14:49:53.438Z,636.00
2023-01-26T14:50:53.369Z,637.00
2023-01-26T14:51:54.917Z,639.00
2023-01-26T14:52:53.242Z,639.00
2023-01-26T14:53:53.188Z,640.00
2023-01-26T14:54:53.168Z,638.00
2023-01-26T14:55:53.049Z,639.00
2023-01-26T14:56:52.974Z,639.00
2023-01-26T14:57:52.886Z,637.00
2023-01-26T14:58:52.823Z,635.00
2023-01-26T14:59:52.988Z,635.00
2023-01-26T15:00:52.779Z,636.00
2023-01-26T15:01:52.662Z,635.00
2023-01-26T15:02:52.685Z,632.00
2023-01-26T15:03:52.508Z,633.00
2023-01-26T15:04:52.438Z,632.00
2023-01-26T15:05:52.493Z,631.00
2023-01-26T15:06:52.312Z,628.00
2023-01-26T15:07:52.240Z,630.00
2023-01-26T15:08:52.177Z,627.00
2023-01-26T15:09:52.090Z,626.00
2023-01-26T15:10:52.020Z,624.00
2023-01-26T15:11:51.980Z,624.00
2023-01-26T15:12:51.908Z,624.00
2023-01-26T15:13:51.826Z,627.00
2023-01-26T15:14:51.791Z,626.00
2023-01-26T15:15:51.755Z,622.00
2023-01-26T15:16:51.672Z,623.00
2023-01-26T15:17:51.580Z,622.00
2023-01-26T15:18:51.671Z,620.00
2023-01-26T15:19:53.675Z,618.00
2023-01-26T15:20:51.402Z,616.00
2023-01-26T15:21:51.370Z,615.00
2023-01-26T15:22:51.281Z,617.00
2023-01-26T15:23:51.246Z,617.00
2023-01-26T15:24:51.171Z,615.00
2023-01-26T15:25:51.099Z,617.00
2023-01-26T15:26:51.070Z,618.00
2023-01-26T15:27:50.982Z,615.00
2023-01-26T15:28:50.950Z,615.00
2023-01-26T15:29:50.843Z,613.00
2023-01-26T15:30:50.837Z,613.00
2023-01-26T15:31:50.752Z,610.00
2023-01-26T15:32:50.670Z,608.00
2023-01-26T15:33:50.658Z,608.00
2023-01-26T15:34:50.537Z,607.00
2023-01-26T15:35:50.502Z,604.00
2023-01-26T15:36:50.451Z,604.00
2023-01-26T15:37:50.423Z,605.00
2023-01-26T15:38:50.285Z,603.00
2023-01-26T15:39:50.276Z,600.00
2023-01-26T15:40:50.177Z,600.00
2023-01-26T15:41:51.955Z,599.00
2023-01-26T15:42:50.230Z,599.00
2023-01-26T15:43:50.011Z,599.00
2023-01-26T15:44:49.943Z,595.00
2023-01-26T15:45:49.934Z,593.00
2023-01-26T15:46:49.879Z,593.00
2023-01-26T15:47:49.764Z,594.00
2023-01-26T15:48:49.719Z,594.00
2023-01-26T15:49:49.763Z,593.00
2023-01-26T15:50:49.594Z,591.00
2023-01-26T15:51:49.553Z,592.00
2023-01-26T15:52:51.475Z,592.00
2023-01-26T15:57:25.553Z,590.00
2023-01-26T15:58:25.507Z,589.00
2023-01-26T15:59:25.475Z,588.00
2023-01-26T16:03:35.415Z,575.00
2023-01-26T16:04:14.310Z,576.00
2023-01-26T16:05:14.302Z,577.00
2023-01-26T16:06:14.206Z,577.00
2023-01-26T16:07:14.163Z,578.00
2023-01-26T16:08:14.128Z,582.00
2023-01-26T16:09:14.083Z,581.00
2023-01-26T16:10:14.040Z,582.00
2023-01-26T16:11:14.012Z,583.00
2023-01-26T16:12:25.918Z,583.00